Meteorología y climatología de Navarra
Datos de la estación - Meteo Navarra

Estación de Gorramendi GN

Altitud 1071 m.


Datos desde el 11/10/2018 hasta el 12/10/2018 en horario solar
Los datos son PROVISIONALES

Anterior Página 1 de 1 Siguiente Descargar: Formato para Excel 2000 o superior   Formato csv   Formato para OpenOffice Calc
Fecha Temperatura Humedad relativa Radiación global Insolación Precipitación Velocidad viento 10 m Velocidad viento 10 m Dirección viento 10 m
ºC % W/m² s l/m² m/s km/h º
11/10/2018 0:00 13.1 74 0.0 0 0.0 18.5 66.6 192
11/10/2018 0:10 12.9 76 0.0 0 0.0 18.7 67.4 193
11/10/2018 0:20 13.0 76 0.0 0 0.0 17.5 63.1 194
11/10/2018 0:30 12.8 77 0.0 0 0.0 18.8 67.5 198
11/10/2018 0:40 12.9 76 0.0 0 0.0 19.5 70.1 197
11/10/2018 0:50 13.1 75 0.0 0 0.0 19.0 68.4 199
11/10/2018 1:00 13.1 75 0.0 0 0.0 18.6 67.0 197
11/10/2018 1:10 13.3 74 0.0 0 0.0 19.2 69.1 201
11/10/2018 1:20 13.4 74 0.0 0 0.0 17.1 61.7 202
11/10/2018 1:30 13.5 75 0.0 0 0.0 17.1 61.7 201
11/10/2018 1:40 13.4 75 0.0 0 0.0 16.0 57.7 199
11/10/2018 1:50 13.4 76 0.0 0 0.0 15.5 55.9 205
11/10/2018 2:00 13.4 76 0.0 0 0.0 14.7 53.0 202
11/10/2018 2:10 13.5 76 0.0 0 0.0 15.4 55.3 198
11/10/2018 2:20 13.4 76 0.0 0 0.0 14.8 53.4 198
11/10/2018 2:30 13.6 76 0.0 0 0.0 15.9 57.4 202
11/10/2018 2:40 13.4 77 0.0 0 0.0 15.1 54.2 191
11/10/2018 2:50 13.2 78 0.0 0 0.0 15.6 56.1 190
11/10/2018 3:00 13.3 78 0.0 0 0.0 15.8 56.9 189
11/10/2018 3:10 13.4 77 0.0 0 0.0 15.8 56.9 190
11/10/2018 3:20 13.4 77 0.0 0 0.0 15.0 54.1 189
11/10/2018 3:30 13.3 78 0.0 0 0.0 15.2 54.6 193
11/10/2018 3:40 13.3 77 0.0 0 0.0 16.4 59.2 193
11/10/2018 3:50 13.7 75 0.0 0 0.0 19.5 70.3 192
11/10/2018 4:00 13.8 74 0.0 0 0.0 20.0 71.8 190
11/10/2018 4:10 14.0 73 0.0 0 0.0 20.7 74.5 190
11/10/2018 4:20 14.0 73 0.0 0 0.0 19.0 68.5 190
11/10/2018 4:30 14.0 73 0.0 0 0.0 18.8 67.7 193
11/10/2018 4:40 14.0 73 0.0 0 0.0 17.8 64.2 190
11/10/2018 4:50 13.9 73 0.0 0 0.0 16.8 60.5 197
11/10/2018 5:00 13.7 75 0.0 0 0.0 18.0 64.8 199
11/10/2018 5:10 13.5 76 0.0 0 0.0 17.2 61.7 195
11/10/2018 5:20 13.6 76 0.0 0 0.0 16.6 59.7 193
11/10/2018 5:30 13.5 77 0.0 0 0.0 16.7 60.2 195
11/10/2018 5:40 13.4 78 0.0 0 0.0 15.3 55.2 193
11/10/2018 5:50 13.3 78 0.0 0 0.0 15.1 54.4 196
11/10/2018 6:00 13.1 80 0.0 0 0.0 13.1 47.3 198
11/10/2018 6:10 12.8 81 0.0 0 0.0 10.5 37.6 206
11/10/2018 6:20 12.7 82 9.5 0 0.0 9.5 34.3 203
11/10/2018 6:30 12.9 81 30.2 280 0.0 10.0 36.0 207
11/10/2018 6:40 12.8 82 37.1 578 0.0 10.3 36.9 206
11/10/2018 6:50 12.9 81 38.0 220 0.0 13.4 48.3 203
11/10/2018 7:00 13.2 80 36.7 0 0.0 14.2 51.3 200
11/10/2018 7:10 13.5 78 36.8 0 0.0 15.4 55.4 197
11/10/2018 7:20 13.4 78 37.8 0 0.0 13.7 49.4 191
11/10/2018 7:30 13.4 78 43.0 0 0.0 14.8 53.2 197
11/10/2018 7:40 13.4 79 42.8 0 0.0 14.9 53.5 199
11/10/2018 7:50 13.5 79 48.2 0 0.0 11.5 41.3 203
11/10/2018 8:00 13.7 77 59.2 0 0.0 13.5 48.7 201
11/10/2018 8:10 13.8 77 79.0 0 0.0 13.7 49.5 194
11/10/2018 8:20 14.0 76 100.0 0 0.0 14.6 52.7 185
11/10/2018 8:30 14.0 77 98.4 0 0.0 11.3 40.8 194
11/10/2018 8:40 13.9 78 112.6 0 0.0 10.0 35.8 207
11/10/2018 8:50 13.9 78 96.1 0 0.0 10.2 36.8 216
11/10/2018 9:00 14.0 78 120.9 0 0.0 10.2 36.8 203
11/10/2018 9:10 14.2 77 143.4 0 0.0 8.8 31.5 192
11/10/2018 9:20 14.2 77 146.1 0 0.0 8.4 30.2 198
11/10/2018 9:30 14.3 77 219.0 86 0.0 11.6 41.9 204
11/10/2018 9:40 14.7 77 499.5 524 0.0 11.6 41.7 191
11/10/2018 9:50 15.1 74 542.0 600 0.0 13.5 48.6 191
11/10/2018 10:00 15.5 73 706.0 600 0.0 12.6 45.2 190
11/10/2018 10:10 16.1 72 651.6 600 0.0 12.6 45.3 197
11/10/2018 10:20 16.0 71 681.4 600 0.0 14.3 51.6 199
11/10/2018 10:30 15.9 71 355.9 444 0.0 15.3 55.2 201
11/10/2018 10:40 15.6 73 216.3 6 0.0 13.2 47.6 206
11/10/2018 10:50 15.6 72 216.1 0 0.0 15.5 55.6 195
11/10/2018 11:00 15.7 72 288.8 120 0.0 14.2 51.2 199
11/10/2018 11:10 15.6 73 191.4 0 0.0 15.4 55.3 199
11/10/2018 11:20 15.5 72 181.8 0 0.0 17.1 61.7 193
11/10/2018 11:30 15.7 73 407.6 360 0.0 16.5 59.4 193
11/10/2018 11:40 15.7 73 213.8 0 0.0 17.8 64.2 199
11/10/2018 11:50 15.8 73 308.8 186 0.0 17.6 63.3 197
11/10/2018 12:00 15.9 73 307.9 148 0.0 16.4 59.0 202
11/10/2018 12:10 15.7 73 286.8 0 0.0 16.9 60.7 199
11/10/2018 12:20 15.8 74 301.9 0 0.0 16.6 59.8 195
11/10/2018 12:30 15.6 75 198.7 0 0.0 14.6 52.7 194
11/10/2018 12:40 15.3 76 130.7 0 0.0 12.6 45.4 195
11/10/2018 12:50 15.1 77 112.2 0 0.0 13.7 49.2 204
11/10/2018 13:00 15.0 78 143.9 0 0.0 14.6 52.5 202
11/10/2018 13:10 15.0 79 141.2 0 0.0 13.5 48.4 204
11/10/2018 13:20 15.1 78 201.8 0 0.0 14.2 51.0 207
11/10/2018 13:30 15.4 77 325.5 338 0.0 14.7 52.8 204
11/10/2018 13:40 15.5 77 256.9 14 0.0 15.1 54.3 201
11/10/2018 13:50 15.5 77 251.6 142 0.0 13.8 49.5 202
11/10/2018 14:00 15.6 77 342.8 278 0.0 12.8 46.1 207
11/10/2018 14:10 15.8 76 328.5 288 0.0 13.5 48.7 207
11/10/2018 14:20 16.3 75 515.3 552 0.0 13.9 49.9 207
11/10/2018 14:30 16.8 73 528.0 600 0.0 12.6 45.3 208
11/10/2018 14:40 17.1 73 537.0 600 0.0 10.5 37.7 209
11/10/2018 14:50 17.0 71 469.2 580 0.0 11.3 40.8 207
11/10/2018 15:00 16.6 73 254.5 232 0.0 10.4 37.4 204
11/10/2018 15:10 16.3 74 97.5 0 0.0 10.9 39.1 205
11/10/2018 15:20 16.1 74 78.0 0 0.0 10.5 37.9 204
11/10/2018 15:30 16.0 76 74.1 0 0.0 12.8 46.0 206
11/10/2018 15:40 15.4 80 102.0 0 0.3 11.7 42.0 208
11/10/2018 15:50 15.3 81 65.0 0 0.1 10.8 38.9 208
11/10/2018 16:00 15.4 80 63.2 0 0.0 10.1 36.2 211
11/10/2018 16:10 15.8 77 99.2 0 0.0 11.6 41.7 205
11/10/2018 16:20 15.7 77 47.1 0 0.0 11.6 41.7 216
11/10/2018 16:30 15.7 77 28.6 0 0.0 12.9 46.3 221
11/10/2018 16:40 15.5 79 35.6 0 0.0 10.4 37.5 213
11/10/2018 16:50 15.3 80 30.6 0 0.0 11.0 39.7 205
11/10/2018 17:00 15.3 81 31.0 0 0.0 12.0 43.2 205
11/10/2018 17:10 15.2 81 14.0 0 0.0 11.8 42.6 211
11/10/2018 17:20 15.1 82 0.0 0 0.0 9.1 32.7 207
11/10/2018 17:30 15.1 83 0.0 0 0.0 9.9 35.7 215
11/10/2018 17:40 14.6 87 0.0 0 0.1 8.0 28.7 214
11/10/2018 17:50 14.3 88 0.0 0 0.0 9.7 34.8 192
11/10/2018 18:00 14.8 84 0.0 0 0.0 12.1 43.4 196
11/10/2018 18:10 15.0 83 0.0 0 0.0 12.2 43.7 192
11/10/2018 18:20 15.0 83 0.0 0 0.0 10.7 38.3 195
11/10/2018 18:30 14.9 83 0.0 0 0.0 11.0 39.6 197
11/10/2018 18:40 15.0 82 0.0 0 0.0 12.0 43.0 198
11/10/2018 18:50 15.3 81 0.0 0 0.0 12.7 45.8 197
11/10/2018 19:00 15.4 80 0.0 0 0.0 12.1 43.5 196
11/10/2018 19:10 15.3 81 0.0 0 0.0 12.0 43.3 196
11/10/2018 19:20 15.4 80 0.0 0 0.0 11.7 41.9 196
11/10/2018 19:30 15.4 80 0.0 0 0.0 11.9 42.8 198
11/10/2018 19:40 15.3 80 0.0 0 0.0 11.6 41.7 198
11/10/2018 19:50 15.4 80 0.0 0 0.0 12.1 43.4 200
11/10/2018 20:00 15.4 81 0.0 0 0.0 11.2 40.4 202
11/10/2018 20:10 15.3 80 0.0 0 0.0 11.5 41.2 202
11/10/2018 20:20 15.4 80 0.0 0 0.0 12.5 45.0 200
11/10/2018 20:30 15.7 78 0.0 0 0.0 13.6 48.8 201
11/10/2018 20:40 15.7 78 0.0 0 0.0 12.4 44.8 200
11/10/2018 20:50 15.8 78 0.0 0 0.0 13.1 47.0 196
11/10/2018 21:00 15.6 78 0.0 0 0.0 12.4 44.5 197
11/10/2018 21:10 15.6 79 0.0 0 0.0 12.5 45.1 197
11/10/2018 21:20 15.5 79 0.0 0 0.0 11.4 40.9 197
11/10/2018 21:30 15.6 79 0.0 0 0.0 11.9 42.8 194
11/10/2018 21:40 15.6 78 0.0 0 0.0 11.8 42.3 195
11/10/2018 21:50 15.5 79 0.0 0 0.0 12.4 44.6 203
11/10/2018 22:00 15.5 79 0.0 0 0.0 11.9 42.9 207
11/10/2018 22:10 15.5 79 0.0 0 0.0 12.6 45.2 209
11/10/2018 22:20 15.6 78 0.0 0 0.0 13.9 50.1 202
11/10/2018 22:30 15.5 78 0.0 0 0.0 13.1 47.1 200
11/10/2018 22:40 15.8 77 0.0 0 0.0 13.3 47.9 199
11/10/2018 22:50 15.7 78 0.0 0 0.0 14.1 50.9 207
11/10/2018 23:00 15.9 76 0.0 0 0.0 14.5 52.3 201
11/10/2018 23:10 15.9 76 0.0 0 0.0 14.0 50.4 198
11/10/2018 23:20 15.9 76 0.0 0 0.0 13.4 48.4 201
11/10/2018 23:30 15.8 77 0.0 0 0.0 13.7 49.2 201
11/10/2018 23:40 15.8 77 0.0 0 0.0 13.4 48.3 195
11/10/2018 23:50 15.6 79 0.0 0 0.0 13.5 48.5 194
Anterior Página 1 de 1 Siguiente
Los datos de precipitación registrados en estaciones que están en cumbres son inferiores a lo real, como consecuencia del efecto del viento y de la nieve.


NOTA: Tipo de datos según el color:
   - Valores diarios o 10 minutos correctos
   - Valores diarios calculados a partir de un número de datos 10 minutos menor que 144 y mayor que 120, o de un número de datos semihorarios menor que 48 y mayor que 40 (caso de las estaciones de Riegos de Navarra y del MARM)
   - Valores diez minutos estimados


Contacto        Enlaces        Aviso legal